createdAt,value
2018-03-28T00:00:13.746Z,10.93
2018-03-28T00:00:54.159Z,10.91
2018-03-28T00:01:34.555Z,10.9
2018-03-28T00:02:14.960Z,10.9
2018-03-28T00:02:55.352Z,10.87
2018-03-28T00:03:35.786Z,10.95
2018-03-28T00:04:16.175Z,10.93
2018-03-28T00:04:56.552Z,10.87
2018-03-28T00:05:36.995Z,10.93
2018-03-28T00:06:17.350Z,10.88
2018-03-28T00:08:14.773Z,10.88
2018-03-28T00:08:55.133Z,10.93
2018-03-28T00:09:35.579Z,10.83
2018-03-28T00:10:15.959Z,10.94
2018-03-28T00:10:56.357Z,10.9
2018-03-28T00:11:36.754Z,10.91
2018-03-28T00:12:17.168Z,10.88
2018-03-28T00:12:57.560Z,10.88
2018-03-28T00:13:37.966Z,10.88
2018-03-28T00:14:18.341Z,10.94
2018-03-28T00:14:58.737Z,10.88
2018-03-28T00:15:39.153Z,10.88
2018-03-28T00:16:19.514Z,10.76
2018-03-28T00:16:59.916Z,10.69
2018-03-28T00:17:40.304Z,10.69
2018-03-28T00:18:20.711Z,10.66
2018-03-28T00:19:01.080Z,10.66
2018-03-28T00:19:41.474Z,10.68
2018-03-28T00:20:21.842Z,10.72
2018-03-28T00:21:59.202Z,10.76
2018-03-28T00:22:39.446Z,10.76
2018-03-28T00:23:19.918Z,10.72
2018-03-28T00:24:00.274Z,10.7
2018-03-28T00:24:40.687Z,10.84
2018-03-28T00:25:21.073Z,10.87
2018-03-28T00:26:01.472Z,10.88
2018-03-28T00:26:41.893Z,10.94
2018-03-28T00:27:22.297Z,10.93
2018-03-28T00:28:02.699Z,10.95
2018-03-28T00:28:43.104Z,11.05
2018-03-28T00:29:23.465Z,10.99
2018-03-28T00:30:03.872Z,11.05
2018-03-28T00:30:44.290Z,11.05
2018-03-28T00:31:24.671Z,11.12
2018-03-28T00:32:05.094Z,11.08
2018-03-28T00:32:45.477Z,11.09
2018-03-28T00:33:25.882Z,11.12
2018-03-28T00:34:06.258Z,11.09
2018-03-28T00:34:46.675Z,10.95
2018-03-28T00:35:27.032Z,11.02
2018-03-28T00:36:07.433Z,10.93
2018-03-28T00:36:47.849Z,10.93
2018-03-28T00:37:28.263Z,10.91
2018-03-28T00:38:08.652Z,10.76
2018-03-28T00:38:49.073Z,10.75
2018-03-28T00:39:29.453Z,10.69
2018-03-28T00:40:09.890Z,10.7
2018-03-28T00:42:07.348Z,10.76
2018-03-28T00:42:47.701Z,10.84
2018-03-28T00:43:28.112Z,10.87
2018-03-28T00:44:08.473Z,10.84
2018-03-28T00:44:48.870Z,10.83
2018-03-28T00:45:29.264Z,10.83
2018-03-28T00:46:09.657Z,10.87
2018-03-28T00:46:50.047Z,10.87
2018-03-28T00:47:30.439Z,10.9
2018-03-28T00:48:10.874Z,10.91
2018-03-28T00:48:51.308Z,10.87
2018-03-28T00:49:31.631Z,10.84
2018-03-28T00:50:12.031Z,10.88
2018-03-28T00:50:52.420Z,11.03
2018-03-28T00:51:32.816Z,10.87
2018-03-28T00:52:13.231Z,10.83
2018-03-28T00:52:53.619Z,10.88
2018-03-28T00:53:34.055Z,10.87
2018-03-28T00:54:14.417Z,10.84
2018-03-28T00:54:54.823Z,10.93
2018-03-28T00:55:35.206Z,11.05
2018-03-28T00:56:15.637Z,11.02
2018-03-28T00:56:56.006Z,11.02
2018-03-28T00:57:36.394Z,10.86
2018-03-28T00:58:16.793Z,10.81
2018-03-28T00:59:53.963Z,10.87
2018-03-28T01:00:34.363Z,10.78
2018-03-28T01:01:14.784Z,10.83
2018-03-28T01:01:55.188Z,10.81
2018-03-28T01:02:35.591Z,10.76
2018-03-28T01:03:16.005Z,10.73
2018-03-28T01:03:56.442Z,10.86
2018-03-28T01:04:36.871Z,10.83
2018-03-28T01:05:17.240Z,10.69
2018-03-28T01:05:57.637Z,10.73
2018-03-28T01:06:38.033Z,10.9
2018-03-28T01:07:18.447Z,10.9
2018-03-28T01:07:58.835Z,10.88
2018-03-28T01:08:39.237Z,10.91
2018-03-28T01:09:19.630Z,10.86
2018-03-28T01:10:00.003Z,11.01
2018-03-28T01:10:40.494Z,11.05
2018-03-28T01:11:20.826Z,11.02
2018-03-28T01:12:01.239Z,11.06
2018-03-28T01:12:41.630Z,11.06
2018-03-28T01:13:22.029Z,11.03
2018-03-28T01:14:02.430Z,11.08
2018-03-28T01:14:42.844Z,11.06
2018-03-28T01:15:23.233Z,11.05
2018-03-28T01:16:03.623Z,10.95
2018-03-28T01:16:44.050Z,11.02
2018-03-28T01:17:24.448Z,10.93
2018-03-28T01:18:04.848Z,10.83
2018-03-28T01:18:45.226Z,10.87
2018-03-28T01:19:25.649Z,10.9
2018-03-28T01:20:06.047Z,10.86
2018-03-28T01:20:46.454Z,10.7
2018-03-28T01:21:26.843Z,10.73
2018-03-28T01:22:07.230Z,10.83
2018-03-28T01:22:47.634Z,10.73
2018-03-28T01:23:28.034Z,10.72
2018-03-28T01:24:08.445Z,10.78
2018-03-28T01:24:48.861Z,10.72
2018-03-28T01:25:29.296Z,10.7
2018-03-28T01:26:09.726Z,10.7
2018-03-28T01:26:50.107Z,10.65
2018-03-28T01:27:30.527Z,10.68
2018-03-28T01:28:10.928Z,10.78
2018-03-28T01:28:51.353Z,10.72
2018-03-28T01:29:31.739Z,10.7
2018-03-28T01:30:12.149Z,10.73
2018-03-28T01:31:59.437Z,10.72
2018-03-28T01:32:39.798Z,10.66
2018-03-28T01:33:20.247Z,10.63
2018-03-28T01:34:00.660Z,10.65
2018-03-28T01:34:41.039Z,10.66
2018-03-28T01:35:21.440Z,10.69
2018-03-28T01:36:01.860Z,10.65
2018-03-28T01:36:42.262Z,10.66
2018-03-28T01:37:22.663Z,10.69
2018-03-28T01:38:03.074Z,10.57
2018-03-28T01:38:43.473Z,10.55
2018-03-28T01:39:23.861Z,10.6
2018-03-28T01:40:04.260Z,10.62
2018-03-28T01:40:44.692Z,10.54
2018-03-28T01:41:25.081Z,10.58
2018-03-28T01:42:05.449Z,10.57
2018-03-28T01:42:45.883Z,10.58
2018-03-28T01:43:26.256Z,10.55
2018-03-28T01:44:06.638Z,10.55
2018-03-28T01:44:47.048Z,10.46
2018-03-28T01:45:27.497Z,10.47
2018-03-28T01:46:07.827Z,10.43
2018-03-28T01:46:48.222Z,10.46
2018-03-28T01:47:28.578Z,10.44
2018-03-28T01:48:09.021Z,10.38
2018-03-28T01:48:49.368Z,10.42
2018-03-28T01:49:29.759Z,10.49
2018-03-28T01:50:10.190Z,10.43
2018-03-28T01:50:50.559Z,10.47
2018-03-28T01:51:30.987Z,10.43
2018-03-28T01:52:11.368Z,10.39
2018-03-28T01:52:51.776Z,10.46
2018-03-28T01:53:32.193Z,10.49
2018-03-28T01:54:12.572Z,10.44
2018-03-28T01:54:52.953Z,10.47
2018-03-28T01:55:33.373Z,10.47
2018-03-28T01:56:13.753Z,10.51
2018-03-28T01:56:54.143Z,10.42
2018-03-28T01:57:34.545Z,10.44
2018-03-28T01:58:14.944Z,10.55
2018-03-28T01:58:55.352Z,10.54
2018-03-28T01:59:35.757Z,10.47
2018-03-28T02:00:16.223Z,10.46
2018-03-28T02:00:56.573Z,10.51
2018-03-28T02:01:36.989Z,10.46
2018-03-28T02:02:17.406Z,10.49
2018-03-28T02:02:57.788Z,10.42
2018-03-28T02:03:38.177Z,10.39
2018-03-28T02:04:18.574Z,10.43
2018-03-28T02:04:59.007Z,10.36
2018-03-28T02:05:39.358Z,10.42
2018-03-28T02:06:19.813Z,10.44
2018-03-28T02:07:00.184Z,10.46
2018-03-28T02:07:40.593Z,10.38
2018-03-28T02:08:21.002Z,10.49
2018-03-28T02:09:01.435Z,10.39
2018-03-28T02:09:41.810Z,10.49
2018-03-28T02:10:22.228Z,10.57
2018-03-28T02:11:02.648Z,10.54
2018-03-28T02:11:43.039Z,10.47
2018-03-28T02:12:23.466Z,10.44
2018-03-28T02:13:03.873Z,10.54
2018-03-28T02:13:44.290Z,10.47
2018-03-28T02:14:24.680Z,10.58
2018-03-28T02:15:05.105Z,10.55
2018-03-28T02:15:45.490Z,10.49
2018-03-28T02:16:25.890Z,10.43
2018-03-28T02:17:06.306Z,10.51
2018-03-28T02:17:46.639Z,10.46
2018-03-28T02:18:27.022Z,10.49
2018-03-28T02:19:07.440Z,10.44
2018-03-28T02:19:47.823Z,10.49
2018-03-28T02:20:28.221Z,10.55
2018-03-28T02:21:08.651Z,10.58
2018-03-28T02:21:49.034Z,10.47
2018-03-28T02:22:29.469Z,10.49
2018-03-28T02:23:09.843Z,10.55
2018-03-28T02:23:50.251Z,10.6
2018-03-28T02:24:30.635Z,10.58
2018-03-28T02:25:11.058Z,10.58
2018-03-28T02:25:51.448Z,10.6
2018-03-28T02:26:31.835Z,10.55
2018-03-28T02:27:12.238Z,10.63
2018-03-28T02:27:52.627Z,10.6
2018-03-28T02:28:33.047Z,10.65
2018-03-28T02:29:13.446Z,10.66
2018-03-28T02:29:53.856Z,10.6
2018-03-28T02:30:34.242Z,10.58
2018-03-28T02:31:14.611Z,10.57
2018-03-28T02:31:55.025Z,10.6
2018-03-28T02:32:35.434Z,10.54
2018-03-28T02:33:15.867Z,10.54
2018-03-28T02:33:56.256Z,10.68
2018-03-28T02:34:36.631Z,10.57
2018-03-28T02:35:17.035Z,10.57
2018-03-28T02:35:57.447Z,10.58
2018-03-28T02:36:37.821Z,10.62
2018-03-28T02:37:18.213Z,10.62
2018-03-28T02:37:58.622Z,10.58
2018-03-28T02:38:39.039Z,10.57
2018-03-28T02:39:19.421Z,10.57
2018-03-28T02:39:59.862Z,10.52
2018-03-28T02:40:40.273Z,10.65
2018-03-28T02:41:20.613Z,10.66
2018-03-28T02:42:01.007Z,10.68
2018-03-28T02:42:41.383Z,10.76
2018-03-28T02:43:21.784Z,10.69
2018-03-28T02:44:02.202Z,10.72
2018-03-28T02:44:42.567Z,10.76
2018-03-28T02:45:22.971Z,10.72
2018-03-28T02:46:03.374Z,10.94
2018-03-28T02:46:43.769Z,10.87
2018-03-28T02:47:24.180Z,10.94
2018-03-28T02:48:04.557Z,10.91
2018-03-28T02:48:44.975Z,11.02
2018-03-28T02:49:25.394Z,10.99
2018-03-28T02:50:05.798Z,11.06
2018-03-28T02:50:46.188Z,11.03
2018-03-28T02:51:26.577Z,11.03
2018-03-28T02:52:06.935Z,11.12
2018-03-28T02:52:47.348Z,11.09
2018-03-28T02:53:27.775Z,11.05
2018-03-28T02:54:08.179Z,10.99
2018-03-28T02:54:48.583Z,11.21
2018-03-28T02:55:28.973Z,11.23
2018-03-28T02:56:09.385Z,11.23
2018-03-28T02:56:49.792Z,11.35
2018-03-28T02:57:30.162Z,11.35
2018-03-28T02:58:10.591Z,11.33
2018-03-28T02:58:51.011Z,11.42
2018-03-28T02:59:31.416Z,11.49
2018-03-28T03:00:11.805Z,11.53
2018-03-28T03:00:52.229Z,11.53
2018-03-28T03:01:32.622Z,11.54
2018-03-28T03:02:13.005Z,11.45
2018-03-28T03:02:53.446Z,11.59
2018-03-28T03:03:33.834Z,11.54
2018-03-28T03:04:14.202Z,11.56
2018-03-28T03:04:54.596Z,11.56
2018-03-28T03:05:35.017Z,11.48
2018-03-28T03:06:15.420Z,11.6
2018-03-28T03:06:55.881Z,11.62
2018-03-28T03:09:08.725Z,11.77
2018-03-28T03:09:49.121Z,11.74
2018-03-28T03:10:29.522Z,11.79
2018-03-28T03:11:11.928Z,11.96
2018-03-28T03:11:52.225Z,11.96
2018-03-28T03:12:32.619Z,11.96
2018-03-28T03:13:13.621Z,12.01
2018-03-28T03:13:54.026Z,12.07
2018-03-28T03:14:34.443Z,12.12
2018-03-28T03:15:14.825Z,12.15
2018-03-28T03:15:55.244Z,12.13
2018-03-28T03:16:35.637Z,12.19
2018-03-28T03:17:16.082Z,12.13
2018-03-28T03:17:56.459Z,12.16
2018-03-28T03:18:36.872Z,12.16
2018-03-28T03:19:17.305Z,12.16
2018-03-28T03:19:57.688Z,12.25
2018-03-28T03:20:38.132Z,12.18
2018-03-28T03:21:18.512Z,12.26
2018-03-28T03:21:58.927Z,12.3
2018-03-28T03:22:39.315Z,12.26
2018-03-28T03:23:19.740Z,12.16
2018-03-28T03:24:00.083Z,12.12
2018-03-28T03:24:40.478Z,12.21
2018-03-28T03:25:20.823Z,12.19
2018-03-28T03:26:01.485Z,12.29
2018-03-28T03:26:41.885Z,12.34
2018-03-28T03:27:22.315Z,12.31
2018-03-28T03:28:02.692Z,12.38
2018-03-28T03:28:43.093Z,12.37
2018-03-28T03:29:23.522Z,12.36
2018-03-28T03:30:03.958Z,12.23
2018-03-28T03:30:44.750Z,12.33
2018-03-28T03:31:25.131Z,12.38
2018-03-28T03:32:05.604Z,12.36
2018-03-28T03:32:47.727Z,12.3
2018-03-28T03:33:28.138Z,12.34
2018-03-28T03:34:08.526Z,12.23
2018-03-28T03:34:48.912Z,12.16
2018-03-28T03:35:29.318Z,12.12
2018-03-28T03:36:09.715Z,12.08
2018-03-28T03:36:50.163Z,12.15
2018-03-28T03:37:30.562Z,12.18
2018-03-28T03:38:10.968Z,12.12
2018-03-28T03:38:51.342Z,12.19
2018-03-28T03:39:31.782Z,12.15
2018-03-28T03:41:30.473Z,12.11
2018-03-28T03:42:12.192Z,12.07
2018-03-28T03:42:50.809Z,12.08
2018-03-28T03:43:31.514Z,12.07
2018-03-28T03:44:12.052Z,11.94
2018-03-28T03:44:52.356Z,12.05
2018-03-28T03:45:32.783Z,12.08
2018-03-28T03:46:13.332Z,12.08
2018-03-28T03:46:53.765Z,12.04
2018-03-28T03:47:34.152Z,12.05
2018-03-28T03:48:14.540Z,12.11
2018-03-28T03:48:54.991Z,12.07
2018-03-28T03:49:37.804Z,12.07
2018-03-28T03:50:18.200Z,12.05
2018-03-28T03:50:58.746Z,12.15
2018-03-28T03:51:39.046Z,12.12
2018-03-28T03:52:19.585Z,12.11
2018-03-28T03:52:59.962Z,12.22
2018-03-28T03:53:40.587Z,12.07
2018-03-28T03:54:20.960Z,11.98
2018-03-28T03:55:01.403Z,11.94
2018-03-28T03:55:41.815Z,12.04
2018-03-28T03:56:22.556Z,12.01
2018-03-28T03:57:02.702Z,11.96
2018-03-28T03:57:43.123Z,12.03
2018-03-28T03:58:23.495Z,11.94
2018-03-28T03:59:03.932Z,12.08
2018-03-28T03:59:44.324Z,12.12
2018-03-28T04:00:24.777Z,12.16
2018-03-28T04:01:05.194Z,12.13
2018-03-28T04:01:46.269Z,12.15
2018-03-28T04:02:26.674Z,12.11
2018-03-28T04:04:19.967Z,12.11
2018-03-28T04:05:03.394Z,12.11
2018-03-28T04:05:44.146Z,12
2018-03-28T04:47:17.369Z,11.69
2018-03-28T04:47:58.573Z,11.62
2018-03-28T04:48:38.919Z,11.59
2018-03-28T04:49:19.379Z,11.63
2018-03-28T04:49:59.778Z,11.69
2018-03-28T04:50:40.141Z,11.63
2018-03-28T04:51:20.565Z,11.62
2018-03-28T04:52:00.987Z,11.56
2018-03-28T04:52:41.689Z,11.59
2018-03-28T04:53:21.854Z,11.59
2018-03-28T04:54:02.273Z,11.56
2018-03-28T04:54:42.822Z,11.62
2018-03-28T04:55:23.101Z,11.63
2018-03-28T04:56:03.490Z,11.69
2018-03-28T04:56:43.902Z,11.62
2018-03-28T04:57:24.346Z,11.66
2018-03-28T04:58:04.889Z,11.72
2018-03-28T04:58:45.273Z,11.74
2018-03-28T04:59:25.686Z,11.78
2018-03-28T05:00:06.012Z,11.63
2018-03-28T05:00:46.407Z,11.67
2018-03-28T05:01:26.801Z,11.63
2018-03-28T05:02:07.245Z,11.93
2018-03-28T05:02:47.597Z,11.88
2018-03-28T05:03:27.986Z,11.88
2018-03-28T05:04:08.500Z,11.9
2018-03-28T05:04:48.793Z,11.94
2018-03-28T05:05:29.184Z,11.9
2018-03-28T05:06:09.588Z,11.94
2018-03-28T05:06:50.028Z,11.97
2018-03-28T05:07:30.469Z,12.07
2018-03-28T05:08:10.886Z,12.04
2018-03-28T05:08:51.254Z,12.11
2018-03-28T05:09:31.712Z,12.04
2018-03-28T05:10:12.063Z,12.12
2018-03-28T05:10:52.477Z,12.13
2018-03-28T05:11:32.858Z,12.01
2018-03-28T05:12:13.272Z,12.07
2018-03-28T05:12:53.665Z,12.04
2018-03-28T05:13:34.052Z,12.13
2018-03-28T05:14:14.481Z,12.03
2018-03-28T05:14:54.911Z,12.11
2018-03-28T05:15:35.289Z,12.12
2018-03-28T05:16:15.663Z,12.08
2018-03-28T05:16:56.044Z,12.07
2018-03-28T05:17:36.446Z,12.07
2018-03-28T05:18:16.858Z,12.01
2018-03-28T05:18:57.223Z,12.11
2018-03-28T05:19:37.629Z,12.12
2018-03-28T05:20:18.045Z,12.15
2018-03-28T05:20:58.447Z,12.15
2018-03-28T05:21:38.821Z,12.13
2018-03-28T05:22:19.223Z,12.12
2018-03-28T05:22:59.626Z,12.15
2018-03-28T05:23:40.026Z,12.16
2018-03-28T05:24:20.560Z,12.15
2018-03-28T05:25:00.946Z,12.11
2018-03-28T05:25:41.297Z,11.97
2018-03-28T05:26:21.643Z,12.12
2018-03-28T05:27:02.028Z,12.07
2018-03-28T05:27:42.396Z,12.11
2018-03-28T05:28:22.812Z,12.04
2018-03-28T05:29:03.212Z,12.18
2018-03-28T05:29:43.599Z,12.18
2018-03-28T05:30:24.024Z,12.16
2018-03-28T05:31:04.506Z,12.22
2018-03-28T05:31:44.836Z,12.22
2018-03-28T05:32:25.221Z,12.29
2018-03-28T05:33:05.680Z,12.29
2018-03-28T05:33:46.078Z,12.34
2018-03-28T05:34:26.522Z,12.36
2018-03-28T05:35:06.924Z,12.41
2018-03-28T05:35:47.342Z,12.4
2018-03-28T05:36:27.731Z,12.51
2018-03-28T05:37:08.159Z,12.46
2018-03-28T05:37:48.493Z,12.46
2018-03-28T05:38:28.899Z,12.48
2018-03-28T05:39:09.301Z,12.37
2018-03-28T05:39:49.711Z,12.49
2018-03-28T05:40:30.134Z,12.46
2018-03-28T05:41:10.564Z,12.48
2018-03-28T05:41:50.922Z,12.52
2018-03-28T05:42:31.337Z,12.58
2018-03-28T05:43:11.722Z,12.48
2018-03-28T05:43:52.114Z,12.48
2018-03-28T05:44:32.632Z,12.54
2018-03-28T05:45:12.991Z,12.59
2018-03-28T05:45:53.386Z,12.58
2018-03-28T05:46:34.028Z,12.54
2018-03-28T05:47:14.427Z,12.46
2018-03-28T05:47:54.834Z,12.48
2018-03-28T05:48:35.252Z,12.44
2018-03-28T05:49:15.673Z,12.43
2018-03-28T05:49:56.160Z,12.46
2018-03-28T05:50:36.577Z,12.37
2018-03-28T05:51:17.046Z,12.41
2018-03-28T05:51:57.596Z,12.41
2018-03-28T05:52:38.026Z,12.48
2018-03-28T05:53:18.774Z,12.52
2018-03-28T05:53:59.369Z,12.44
2018-03-28T05:54:39.492Z,12.38
2018-03-28T05:55:20.239Z,12.46
2018-03-28T05:56:01.757Z,12.48
2018-03-28T05:56:41.738Z,12.58
2018-03-28T05:57:22.434Z,12.59
2018-03-28T05:58:03.519Z,12.54
2018-03-28T05:58:43.860Z,12.56
2018-03-28T05:59:24.449Z,12.41
2018-03-28T06:00:05.087Z,12.52
2018-03-28T06:00:45.840Z,12.49
2018-03-28T06:01:26.709Z,12.46
2018-03-28T06:02:07.639Z,12.43
2018-03-28T06:02:48.252Z,12.48
2018-03-28T06:03:28.650Z,12.48
2018-03-28T06:04:09.086Z,12.48
2018-03-28T06:04:49.631Z,12.51
2018-03-28T06:05:29.895Z,12.51
2018-03-28T06:06:10.502Z,12.48
2018-03-28T06:06:50.715Z,12.37
2018-03-28T06:07:31.190Z,12.37
2018-03-28T06:09:23.588Z,12.31
2018-03-28T06:10:03.929Z,12.43
2018-03-28T06:10:44.341Z,12.44
2018-03-28T06:11:24.746Z,12.55
2018-03-28T06:12:05.179Z,12.49
2018-03-28T06:12:45.566Z,12.55
2018-03-28T06:13:25.972Z,12.52
2018-03-28T06:14:06.374Z,12.54
2018-03-28T06:14:46.753Z,12.58
2018-03-28T06:15:27.191Z,12.56
2018-03-28T06:16:07.561Z,12.61
2018-03-28T06:16:47.980Z,12.63
2018-03-28T06:17:28.399Z,12.56
2018-03-28T06:18:08.786Z,12.56
2018-03-28T06:18:49.209Z,12.58
2018-03-28T06:19:29.618Z,12.54
2018-03-28T06:20:10.021Z,12.54
2018-03-28T06:20:50.409Z,12.44
2018-03-28T06:21:30.790Z,12.46
2018-03-28T06:22:11.223Z,12.46
2018-03-28T06:22:51.619Z,12.41
2018-03-28T06:23:32.043Z,12.4
2018-03-28T06:24:13.430Z,12.37
2018-03-28T06:24:52.887Z,12.31
2018-03-28T06:25:33.371Z,12.33
2018-03-28T06:26:13.771Z,12.41
2018-03-28T06:26:54.174Z,12.37
2018-03-28T06:27:34.642Z,12.33
2018-03-28T06:28:15.078Z,12.3
2018-03-28T06:28:55.543Z,12.33
2018-03-28T06:29:36.085Z,12.29
2018-03-28T06:31:24.052Z,12.15
2018-03-28T06:32:04.371Z,12.04
2018-03-28T06:32:44.765Z,12.07
2018-03-28T06:33:25.189Z,11.98
2018-03-28T06:34:05.578Z,12.08
2018-03-28T06:34:46.002Z,12.07
2018-03-28T06:35:26.464Z,12.07
2018-03-28T06:36:06.919Z,12.12
2018-03-28T06:36:47.409Z,12.11
2018-03-28T06:37:27.840Z,12.08
2018-03-28T06:38:08.349Z,12.07
2018-03-28T06:38:48.738Z,12
2018-03-28T06:39:29.313Z,11.97
2018-03-28T06:40:09.784Z,11.94
2018-03-28T06:40:50.233Z,11.96
2018-03-28T06:41:30.679Z,12
2018-03-28T06:42:11.099Z,12.04
2018-03-28T06:42:51.567Z,11.93
2018-03-28T06:43:32.007Z,11.96
2018-03-28T06:44:12.496Z,11.96
2018-03-28T06:44:52.810Z,11.93
2018-03-28T06:45:33.278Z,11.84
2018-03-28T06:46:13.774Z,11.9
2018-03-28T06:46:54.159Z,11.94
2018-03-28T06:47:34.512Z,11.81
2018-03-28T06:48:14.921Z,11.85
2018-03-28T06:48:55.398Z,11.82
2018-03-28T06:49:35.809Z,11.75
2018-03-28T06:50:16.222Z,11.81
2018-03-28T06:50:56.846Z,11.77
2018-03-28T06:51:37.249Z,11.77
2018-03-28T06:52:17.695Z,11.72
2018-03-28T06:52:58.063Z,11.69
2018-03-28T06:53:38.497Z,11.63
2018-03-28T06:54:18.955Z,11.62
2018-03-28T06:54:59.317Z,11.67
2018-03-28T06:55:39.773Z,11.6
2018-03-28T06:56:20.615Z,11.48
2018-03-28T06:57:00.971Z,11.51
2018-03-28T06:57:41.382Z,11.51
2018-03-28T06:58:21.839Z,11.53
2018-03-28T06:59:02.235Z,11.53
2018-03-28T06:59:42.733Z,11.53
2018-03-28T07:00:23.192Z,11.6
2018-03-28T07:01:03.593Z,11.57
2018-03-28T07:01:43.973Z,11.63
2018-03-28T07:02:24.425Z,11.6
2018-03-28T07:03:04.865Z,11.57
2018-03-28T07:03:45.256Z,11.62
2018-03-28T07:04:25.685Z,11.54
2018-03-28T07:05:06.105Z,11.57
2018-03-28T07:05:46.572Z,11.6
2018-03-28T07:06:26.927Z,11.69
2018-03-28T07:07:07.390Z,11.64
2018-03-28T07:07:47.921Z,11.72
2018-03-28T07:08:28.394Z,11.67
2018-03-28T07:09:08.793Z,11.6
2018-03-28T07:10:16.895Z,11.75
2018-03-28T07:12:15.680Z,11.7
2018-03-28T07:12:55.937Z,11.96
2018-03-28T07:13:36.334Z,11.82
2018-03-28T07:14:17.879Z,11.87
2018-03-28T07:16:05.689Z,11.85
2018-03-28T07:16:46.345Z,11.81
2018-03-28T07:17:26.754Z,11.79
2018-03-28T07:18:07.193Z,11.75
2018-03-28T07:18:47.730Z,11.81
2018-03-28T07:19:28.126Z,11.77
2018-03-28T07:20:08.575Z,11.72
2018-03-28T07:20:49.018Z,11.79
2018-03-28T07:21:30.444Z,11.77
2018-03-28T07:22:10.879Z,11.75
2018-03-28T07:22:51.298Z,11.84
2018-03-28T07:23:31.721Z,11.81
2018-03-28T07:24:12.151Z,11.81
2018-03-28T07:24:52.535Z,11.75
2018-03-28T07:25:32.922Z,11.79
2018-03-28T07:26:13.338Z,11.78
2018-03-28T07:26:53.813Z,11.9
2018-03-28T07:27:34.291Z,11.82
2018-03-28T07:28:14.654Z,11.82
2018-03-28T07:28:55.122Z,11.87
2018-03-28T07:29:35.534Z,11.9
2018-03-28T07:30:15.918Z,11.9
2018-03-28T07:30:56.347Z,11.96
2018-03-28T07:31:36.820Z,11.88
2018-03-28T07:32:17.236Z,11.98
2018-03-28T07:32:57.606Z,11.98
2018-03-28T07:33:38.035Z,11.97
2018-03-28T07:34:18.523Z,11.97
2018-03-28T07:34:59.034Z,11.96
2018-03-28T07:35:39.392Z,12
2018-03-28T07:36:19.919Z,12.03
2018-03-28T07:37:00.290Z,12.07
2018-03-28T07:37:40.758Z,11.97
2018-03-28T07:38:21.204Z,12.07
2018-03-28T07:39:01.656Z,12.13
2018-03-28T07:39:42.050Z,12.11
2018-03-28T07:40:22.462Z,12.12
2018-03-28T07:41:02.989Z,12.15
2018-03-28T07:41:43.410Z,12.19
2018-03-28T07:42:23.893Z,12.22
2018-03-28T07:43:04.372Z,12.29
2018-03-28T07:43:44.745Z,12.3
2018-03-28T07:44:26.016Z,12.31
2018-03-28T07:45:05.739Z,12.34
2018-03-28T07:45:46.186Z,12.3
2018-03-28T07:46:26.622Z,12.36
2018-03-28T07:47:07.103Z,12.31
2018-03-28T07:47:47.528Z,12.33
2018-03-28T07:48:27.993Z,12.31
2018-03-28T07:49:08.582Z,12.3
2018-03-28T07:49:50.037Z,12.34
2018-03-28T07:50:30.125Z,12.34
2018-03-28T07:51:11.686Z,12.37
2018-03-28T07:53:04.655Z,12.31
2018-03-28T07:53:45.466Z,12.44
2018-03-28T07:54:26.988Z,12.36
2018-03-28T07:55:08.295Z,12.4
2018-03-28T07:55:48.274Z,12.29
2018-03-28T07:56:29.007Z,12.43
2018-03-28T07:57:09.431Z,12.37
2018-03-28T07:57:51.769Z,12.31
2018-03-28T07:58:32.853Z,12.34
2018-03-28T07:59:37.783Z,12.37
2018-03-28T08:01:53.345Z,12.31
2018-03-28T08:02:33.158Z,12.31
2018-03-28T08:03:13.573Z,12.31
2018-03-28T08:03:54.332Z,12.37
2018-03-28T08:04:34.666Z,12.26
2018-03-28T08:05:15.064Z,12.29
2018-03-28T08:05:55.721Z,12.26
2018-03-28T08:06:36.847Z,12.15
2018-03-28T08:07:16.873Z,12.15
2018-03-28T08:07:58.016Z,12.07
2018-03-28T08:08:39.069Z,12.12
2018-03-28T08:09:19.480Z,12.12
2018-03-28T08:09:59.908Z,12.13
2018-03-28T08:10:40.314Z,12.11
2018-03-28T08:11:20.793Z,12.08
2018-03-28T08:12:01.395Z,12.15
2018-03-28T08:12:41.857Z,12.11
2018-03-28T08:13:22.295Z,12.16
2018-03-28T08:14:03.814Z,12.16
2018-03-28T08:14:43.907Z,12.37
2018-03-28T08:15:24.306Z,12.37
2018-03-28T08:16:04.903Z,12.37
2018-03-28T08:16:45.568Z,12.38
2018-03-28T08:17:26.299Z,12.43
2018-03-28T08:18:07.206Z,12.4
2018-03-28T08:18:47.502Z,12.44
2018-03-28T08:19:27.888Z,12.41
2018-03-28T08:20:09.820Z,12.37
2018-03-28T08:20:50.504Z,12.37
2018-03-28T08:21:31.170Z,12.36
2018-03-28T08:22:11.605Z,12.36
2018-03-28T08:22:52.406Z,12.4
2018-03-28T08:23:32.878Z,12.34
2018-03-28T08:24:13.421Z,12.37
2018-03-28T08:24:54.004Z,12.44
2018-03-28T08:25:34.420Z,12.58
2018-03-28T08:26:15.061Z,12.73
2018-03-28T08:26:56.292Z,12.76
2018-03-28T08:27:38.120Z,12.59
2018-03-28T08:28:18.525Z,12.56
2018-03-28T08:28:58.991Z,12.58
2018-03-28T08:29:39.454Z,12.54
2018-03-28T08:30:19.871Z,12.59
2018-03-28T08:31:00.334Z,12.56
2018-03-28T08:31:41.042Z,12.46
2018-03-28T08:32:22.510Z,12.61
2018-03-28T08:33:02.882Z,12.58
2018-03-28T08:33:43.288Z,12.62
2018-03-28T08:34:23.693Z,12.56
2018-03-28T08:35:04.128Z,12.58
2018-03-28T08:35:44.557Z,12.55
2018-03-28T08:36:25.829Z,12.55
2018-03-28T08:37:06.142Z,12.59
2018-03-28T08:37:46.906Z,12.54
2018-03-28T08:38:27.859Z,12.46
2018-03-28T08:39:08.117Z,12.44
2018-03-28T08:39:48.541Z,12.51
2018-03-28T08:40:28.945Z,12.59
2018-03-28T08:41:09.525Z,12.58
2018-03-28T08:41:49.970Z,12.56
2018-03-28T08:42:30.442Z,12.51
2018-03-28T08:43:11.428Z,12.59
2018-03-28T08:43:51.818Z,12.62
2018-03-28T08:44:32.266Z,12.61
2018-03-28T08:45:13.354Z,12.69
2018-03-28T08:45:53.652Z,12.59
2018-03-28T08:46:35.698Z,12.61
2018-03-28T08:47:16.229Z,12.76
2018-03-28T08:47:56.796Z,12.73
2018-03-28T08:48:37.185Z,12.79
2018-03-28T08:49:17.587Z,12.76
2018-03-28T08:49:58.300Z,12.77
2018-03-28T08:50:38.574Z,12.81
2018-03-28T08:51:22.099Z,12.94
2018-03-28T08:52:05.780Z,12.77
2018-03-28T08:52:46.533Z,12.81
2018-03-28T08:53:27.009Z,12.81
2018-03-28T08:54:07.339Z,12.76
2018-03-28T08:54:47.740Z,12.87
2018-03-28T08:55:28.227Z,12.91
2018-03-28T08:56:09.831Z,12.79
2018-03-28T08:56:50.364Z,12.8
2018-03-28T08:57:29.919Z,12.77
2018-03-28T08:58:10.598Z,12.74
2018-03-28T08:58:50.914Z,12.85
2018-03-28T08:59:33.814Z,12.77
2018-03-28T09:00:14.981Z,12.67
2018-03-28T09:00:55.642Z,12.73
2018-03-28T09:01:36.405Z,12.73
2018-03-28T09:02:16.835Z,12.56
2018-03-28T09:02:57.234Z,12.74
2018-03-28T09:03:37.630Z,12.74
2018-03-28T09:04:18.194Z,12.79
2018-03-28T09:04:58.564Z,12.79
2018-03-28T09:05:39.008Z,12.99
2018-03-28T09:06:19.402Z,12.91
2018-03-28T09:06:59.774Z,13.03
2018-03-28T09:07:40.246Z,13.19
2018-03-28T09:08:20.709Z,13.21
2018-03-28T09:09:01.926Z,13.17
2018-03-28T09:09:42.301Z,13.16
2018-03-28T09:10:22.730Z,13.13
2018-03-28T09:11:03.858Z,13.17
2018-03-28T09:11:43.981Z,13.24
2018-03-28T09:12:24.332Z,13.27
2018-03-28T09:13:04.764Z,13.24
2018-03-28T09:13:45.181Z,13.27
2018-03-28T09:14:26.695Z,13.35
2018-03-28T09:39:04.519Z,14.08
2018-03-28T09:40:55.053Z,14.31
2018-03-28T09:41:35.541Z,14.31
2018-03-28T09:42:15.954Z,14.39
2018-03-28T09:42:57.414Z,14.31
2018-03-28T09:43:36.932Z,14.38
2018-03-28T09:44:17.355Z,14.27
2018-03-28T09:44:57.838Z,14.39
2018-03-28T09:45:38.431Z,14.35
2018-03-28T09:46:18.841Z,14.39
2018-03-28T09:46:59.347Z,14.42
2018-03-28T09:47:39.720Z,14.49
2018-03-28T09:48:20.133Z,14.49
2018-03-28T09:49:00.526Z,14.46
2018-03-28T09:49:40.955Z,14.52
2018-03-28T09:50:21.422Z,14.52
2018-03-28T09:51:01.811Z,14.61
2018-03-28T09:51:42.216Z,14.61
2018-03-28T09:52:22.651Z,14.59
2018-03-28T09:53:03.025Z,14.61
2018-03-28T09:53:43.505Z,14.6
2018-03-28T09:54:24.033Z,14.59
2018-03-28T09:55:04.483Z,14.53
2018-03-28T09:55:44.892Z,14.53
2018-03-28T09:56:25.440Z,14.39
2018-03-28T09:57:05.950Z,14.38
2018-03-28T09:57:46.267Z,14.38
2018-03-28T09:58:26.699Z,14.29
2018-03-28T09:59:07.094Z,14.35
2018-03-28T09:59:47.485Z,14.39
2018-03-28T10:00:27.885Z,14.36
2018-03-28T10:01:08.367Z,14.35
2018-03-28T10:01:49.240Z,14.42
2018-03-28T10:02:29.988Z,14.49
2018-03-28T10:03:10.833Z,14.54
2018-03-28T10:03:53.332Z,14.53
2018-03-28T10:04:33.916Z,14.53
2018-03-28T10:05:14.703Z,14.54
2018-03-28T10:05:54.905Z,14.6
2018-03-28T10:06:35.385Z,14.54